createdAt,value
2019-05-30T00:00:33.949Z,45.29
2019-05-30T00:03:05.094Z,45.52
2019-05-30T00:05:34.332Z,45.58
2019-05-30T00:08:04.406Z,45.80
2019-05-30T00:10:33.909Z,45.97
2019-05-30T00:13:03.277Z,46.06
2019-05-30T00:15:32.723Z,46.37
2019-05-30T00:18:02.894Z,46.45
2019-05-30T00:20:34.805Z,46.69
2019-05-30T00:23:04.076Z,46.89
2019-05-30T00:25:33.301Z,47.14
2019-05-30T00:28:05.134Z,47.17
2019-05-30T00:30:33.697Z,47.34
2019-05-30T00:33:04.767Z,47.73
2019-05-30T00:35:34.540Z,47.81
2019-05-30T00:38:03.932Z,48.17
2019-05-30T00:40:33.397Z,48.24
2019-05-30T00:43:04.108Z,48.74
2019-05-30T00:45:33.500Z,48.84
2019-05-30T00:48:02.859Z,48.94
2019-05-30T00:50:32.063Z,49.12
2019-05-30T00:53:01.305Z,49.22
2019-05-30T00:55:30.736Z,49.51
2019-05-30T00:58:00.589Z,49.81
2019-05-30T01:00:42.841Z,49.78
2019-05-30T01:03:03.581Z,49.75
2019-05-30T01:05:32.243Z,50.28
2019-05-30T01:08:01.519Z,50.21
2019-05-30T01:10:30.947Z,50.80
2019-05-30T01:13:01.281Z,50.72
2019-05-30T01:15:30.713Z,51.13
2019-05-30T01:18:01.089Z,51.06
2019-05-30T01:20:30.576Z,51.14
2019-05-30T01:23:01.532Z,51.60
2019-05-30T01:25:32.196Z,51.82
2019-05-30T01:28:01.651Z,52.16
2019-05-30T01:30:31.240Z,52.39
2019-05-30T01:33:01.722Z,52.41
2019-05-30T01:35:31.324Z,52.47
2019-05-30T01:38:01.852Z,52.52
2019-05-30T01:40:31.262Z,52.96
2019-05-30T01:43:00.514Z,53.35
2019-05-30T01:45:29.947Z,53.57
2019-05-30T01:48:00.088Z,53.61
2019-05-30T01:50:29.538Z,54.00
2019-05-30T01:53:00.321Z,54.21
2019-05-30T01:55:29.715Z,54.20
2019-05-30T01:57:58.910Z,54.62
2019-05-30T02:00:38.792Z,54.73
2019-05-30T02:03:09.535Z,54.85
2019-05-30T02:05:40.013Z,55.15
2019-05-30T02:08:10.154Z,54.85
2019-05-30T02:10:39.789Z,55.10
2019-05-30T02:13:09.875Z,55.20
2019-05-30T02:15:39.405Z,55.39
2019-05-30T02:18:09.908Z,55.72
2019-05-30T02:20:40.541Z,55.56
2019-05-30T02:23:11.516Z,55.71
2019-05-30T02:25:40.710Z,55.75
2019-05-30T02:28:10.439Z,55.86
2019-05-30T02:30:40.421Z,55.85
2019-05-30T02:33:12.298Z,55.80
2019-05-30T02:35:41.240Z,55.78
2019-05-30T02:38:11.908Z,55.72
2019-05-30T02:40:41.407Z,55.83
2019-05-30T02:43:12.232Z,56.01
2019-05-30T02:45:42.087Z,56.08
2019-05-30T02:48:12.193Z,56.28
2019-05-30T02:50:42.214Z,56.42
2019-05-30T02:53:13.148Z,56.28
2019-05-30T02:55:43.166Z,56.43
2019-05-30T02:58:12.879Z,56.63
2019-05-30T03:00:42.900Z,56.50
2019-05-30T03:03:14.248Z,56.78
2019-05-30T03:05:44.566Z,56.92
2019-05-30T03:08:14.732Z,56.76
2019-05-30T03:10:44.117Z,56.71
2019-05-30T03:13:13.465Z,56.89
2019-05-30T03:15:42.949Z,56.93
2019-05-30T03:18:14.534Z,57.06
2019-05-30T03:20:43.608Z,57.34
2019-05-30T03:23:14.850Z,57.31
2019-05-30T03:25:44.410Z,57.40
2019-05-30T03:28:13.992Z,57.53
2019-05-30T03:30:46.701Z,57.55
2019-05-30T03:33:36.365Z,57.84
2019-05-30T03:35:47.248Z,57.88
2019-05-30T03:38:16.836Z,57.77
2019-05-30T03:40:46.307Z,57.87
2019-05-30T03:43:16.154Z,58.08
2019-05-30T03:45:46.315Z,58.17
2019-05-30T03:48:18.992Z,58.10
2019-05-30T03:50:51.687Z,58.22
2019-05-30T03:53:21.989Z,58.08
2019-05-30T03:55:56.723Z,57.95
2019-05-30T03:58:35.085Z,58.12
2019-05-30T04:01:08.084Z,57.97
2019-05-30T04:03:42.334Z,58.15
2019-05-30T04:06:20.055Z,57.98
2019-05-30T04:08:52.328Z,57.95
2019-05-30T04:11:24.942Z,57.76
2019-05-30T04:13:58.198Z,57.89
2019-05-30T04:16:27.397Z,57.94
2019-05-30T04:18:56.619Z,57.79
2019-05-30T04:21:26.299Z,57.69
2019-05-30T04:23:55.541Z,57.75
2019-05-30T04:26:24.758Z,58.17
2019-05-30T04:28:54.080Z,57.97
2019-05-30T04:31:23.514Z,58.26
2019-05-30T04:33:52.740Z,58.13
2019-05-30T04:36:22.180Z,57.99
2019-05-30T04:38:51.452Z,57.86
2019-05-30T04:41:21.109Z,57.70
2019-05-30T04:43:50.590Z,57.58
2019-05-30T04:46:21.840Z,57.38
2019-05-30T04:48:51.339Z,57.20
2019-05-30T04:51:21.632Z,57.04
2019-05-30T04:53:51.162Z,56.79
2019-05-30T04:56:22.212Z,56.56
2019-05-30T04:58:51.760Z,56.52
2019-05-30T05:01:22.218Z,56.24
2019-05-30T05:03:52.159Z,56.16
2019-05-30T05:06:21.950Z,56.07
2019-05-30T05:08:51.862Z,56.04
2019-05-30T05:11:25.106Z,55.98
2019-05-30T05:13:52.544Z,55.87
2019-05-30T05:16:34.477Z,55.76
2019-05-30T05:18:52.944Z,55.67
2019-05-30T05:21:23.139Z,55.62
2019-05-30T05:23:52.796Z,55.58
2019-05-30T05:26:22.296Z,55.64
2019-05-30T05:28:53.579Z,55.52
2019-05-30T05:31:22.810Z,55.37
2019-05-30T05:33:56.521Z,55.15
2019-05-30T05:36:23.192Z,54.91
2019-05-30T05:38:52.429Z,54.69
2019-05-30T05:41:22.285Z,54.42
2019-05-30T05:43:51.730Z,53.77
2019-05-30T05:46:20.937Z,53.63
2019-05-30T05:48:51.544Z,53.50
2019-05-30T05:51:20.906Z,53.16
2019-05-30T05:53:50.157Z,53.08
2019-05-30T05:56:19.366Z,52.98
2019-05-30T05:58:48.723Z,52.87
2019-05-30T06:01:19.393Z,52.47
2019-05-30T06:03:48.712Z,52.40
2019-05-30T06:06:19.564Z,52.39
2019-05-30T06:08:48.818Z,52.28
2019-05-30T06:11:18.636Z,52.25
2019-05-30T06:13:48.345Z,52.49
2019-05-30T06:16:17.852Z,52.62
2019-05-30T06:18:47.213Z,52.59
2019-05-30T06:21:17.247Z,52.48
2019-05-30T06:23:46.729Z,52.38
2019-05-30T06:26:17.761Z,52.19
2019-05-30T06:28:47.187Z,52.16
2019-05-30T06:31:16.466Z,52.08
2019-05-30T06:33:45.898Z,52.00
2019-05-30T06:36:15.116Z,51.89
2019-05-30T06:38:44.405Z,51.70
2019-05-30T06:41:13.724Z,51.49
2019-05-30T06:43:42.940Z,51.37
2019-05-30T06:46:12.189Z,51.35
2019-05-30T06:48:41.584Z,51.09
2019-05-30T06:51:14.258Z,50.96
2019-05-30T06:53:42.239Z,50.96
2019-05-30T06:56:11.458Z,50.60
2019-05-30T06:58:48.447Z,50.45
2019-05-30T07:01:11.795Z,50.38
2019-05-30T07:03:41.590Z,50.08
2019-05-30T07:06:11.454Z,49.47
2019-05-30T07:08:42.861Z,49.14
2019-05-30T07:11:12.108Z,48.93
2019-05-30T07:13:43.292Z,47.91
2019-05-30T07:16:12.576Z,47.87
2019-05-30T07:18:41.793Z,46.06
2019-05-30T07:21:11.199Z,46.49
2019-05-30T07:23:40.933Z,46.59
2019-05-30T07:26:10.137Z,46.23
2019-05-30T07:28:39.725Z,46.52
2019-05-30T07:31:09.037Z,45.52
2019-05-30T07:33:38.231Z,45.93
2019-05-30T07:36:07.709Z,45.58
2019-05-30T07:38:37.046Z,44.88
2019-05-30T07:41:06.246Z,44.16
2019-05-30T07:43:35.714Z,41.43
2019-05-30T07:46:04.980Z,41.70
2019-05-30T07:48:34.387Z,41.65
2019-05-30T07:51:03.923Z,41.89
2019-05-30T07:53:33.244Z,40.59
2019-05-30T07:56:02.455Z,41.72
2019-05-30T07:58:33.248Z,40.66
2019-05-30T08:01:02.651Z,40.08
2019-05-30T08:03:32.623Z,40.86
2019-05-30T08:06:02.081Z,41.10
2019-05-30T08:08:31.844Z,41.40
2019-05-30T08:11:09.548Z,40.40
2019-05-30T08:13:33.151Z,40.26
2019-05-30T08:16:02.566Z,40.12
2019-05-30T08:18:31.890Z,39.20
2019-05-30T08:21:01.512Z,39.62
2019-05-30T08:23:30.741Z,39.63
2019-05-30T08:26:01.288Z,39.65
2019-05-30T08:28:32.159Z,40.42
2019-05-30T08:31:01.927Z,39.73
2019-05-30T08:33:31.469Z,38.76
2019-05-30T08:36:05.216Z,38.24
2019-05-30T08:38:33.146Z,37.99
2019-05-30T08:41:02.828Z,37.72
2019-05-30T08:43:32.027Z,37.89
2019-05-30T08:46:01.282Z,38.58
2019-05-30T08:48:32.806Z,38.00
2019-05-30T08:51:01.652Z,37.49
2019-05-30T08:53:32.597Z,38.04
2019-05-30T08:56:02.051Z,38.28
2019-05-30T08:58:32.445Z,38.00
2019-05-30T09:01:02.264Z,37.70
2019-05-30T09:03:31.599Z,36.97
2019-05-30T09:06:03.968Z,37.14
2019-05-30T09:08:32.082Z,37.12
2019-05-30T09:11:01.343Z,37.45
2019-05-30T09:13:30.538Z,37.09
2019-05-30T09:16:00.081Z,36.59
2019-05-30T09:18:29.315Z,36.69
2019-05-30T09:20:58.583Z,37.34
2019-05-30T09:23:28.088Z,37.10
2019-05-30T09:25:57.317Z,37.78
2019-05-30T09:28:26.576Z,37.14
2019-05-30T09:30:56.091Z,37.10
2019-05-30T09:33:25.415Z,37.33
2019-05-30T09:35:54.624Z,37.27
2019-05-30T09:38:24.100Z,36.72
2019-05-30T09:40:53.310Z,35.67
2019-05-30T09:43:22.533Z,35.92
2019-05-30T09:45:51.958Z,35.76
2019-05-30T09:48:21.175Z,36.96
2019-05-30T09:50:51.153Z,36.70
2019-05-30T09:53:20.712Z,36.44
2019-05-30T09:55:51.602Z,35.25
2019-05-30T09:58:21.072Z,34.86
2019-05-30T10:00:50.484Z,34.70
2019-05-30T10:03:19.752Z,34.88
2019-05-30T10:05:50.495Z,34.93
2019-05-30T10:08:20.006Z,34.84
2019-05-30T10:10:49.596Z,34.76
2019-05-30T10:13:19.410Z,34.33
2019-05-30T10:15:48.780Z,34.40
2019-05-30T10:18:18.026Z,34.67
2019-05-30T10:20:48.165Z,34.76
2019-05-30T10:23:18.601Z,34.75
2019-05-30T10:25:49.402Z,33.80
2019-05-30T10:28:18.744Z,34.21
2019-05-30T10:30:52.540Z,34.69
2019-05-30T10:33:19.139Z,34.89
2019-05-30T10:35:49.129Z,34.83
2019-05-30T10:38:22.286Z,34.69
2019-05-30T10:40:52.309Z,34.58
2019-05-30T10:43:21.730Z,34.29
2019-05-30T10:45:53.250Z,33.66
2019-05-30T10:48:22.578Z,34.03
2019-05-30T10:50:52.261Z,32.91
2019-05-30T10:53:22.132Z,32.88
2019-05-30T10:55:53.013Z,32.92
2019-05-30T10:58:30.511Z,33.04
2019-05-30T11:00:59.899Z,32.99
2019-05-30T11:03:29.430Z,33.07
2019-05-30T11:06:29.188Z,33.70
2019-05-30T11:09:00.966Z,33.36
2019-05-30T11:11:30.353Z,33.99
2019-05-30T11:13:59.593Z,33.60
2019-05-30T11:16:28.795Z,33.31
2019-05-30T11:18:58.246Z,33.89
2019-05-30T11:21:27.488Z,34.10
2019-05-30T11:23:56.837Z,33.98
2019-05-30T11:26:26.094Z,34.29
2019-05-30T11:28:56.705Z,34.48
2019-05-30T11:31:25.919Z,34.26
2019-05-30T11:33:55.375Z,34.59
2019-05-30T11:36:25.048Z,34.11
2019-05-30T11:38:55.350Z,33.56
2019-05-30T11:41:24.823Z,33.59
2019-05-30T11:43:54.075Z,33.63
2019-05-30T11:46:23.279Z,33.15
2019-05-30T11:48:53.647Z,33.10
2019-05-30T11:51:22.951Z,33.21
2019-05-30T11:53:52.169Z,33.26
2019-05-30T11:56:21.528Z,32.71
2019-05-30T11:58:51.836Z,33.08
2019-05-30T12:01:21.259Z,33.40
2019-05-30T12:03:50.793Z,33.62
2019-05-30T12:06:20.069Z,33.75
2019-05-30T12:08:49.284Z,33.43
2019-05-30T12:11:20.166Z,33.47
2019-05-30T12:13:49.399Z,33.39
2019-05-30T12:16:19.058Z,33.51
2019-05-30T12:18:48.403Z,33.61
2019-05-30T12:21:17.628Z,33.60
2019-05-30T12:23:46.897Z,33.32
2019-05-30T12:26:16.257Z,33.90
2019-05-30T12:28:45.521Z,34.42
2019-05-30T12:31:14.779Z,34.87
2019-05-30T12:33:44.203Z,35.17
2019-05-30T12:36:13.447Z,35.45
2019-05-30T12:38:42.760Z,35.94
2019-05-30T12:41:12.192Z,36.42
2019-05-30T12:43:41.437Z,36.63
2019-05-30T12:46:10.637Z,36.69
2019-05-30T12:48:40.061Z,37.00
2019-05-30T12:51:09.296Z,37.37
2019-05-30T12:53:38.491Z,37.63
2019-05-30T12:56:07.909Z,37.80
2019-05-30T12:58:37.146Z,37.96
2019-05-30T13:01:07.051Z,38.38
2019-05-30T13:03:37.270Z,38.55
2019-05-30T13:06:07.542Z,38.44
2019-05-30T13:08:36.932Z,38.46
2019-05-30T13:11:06.394Z,38.55
2019-05-30T13:13:35.696Z,38.65
2019-05-30T13:16:08.460Z,39.04
2019-05-30T13:18:36.187Z,39.28
2019-05-30T13:21:06.324Z,39.37
2019-05-30T13:23:35.758Z,39.56
2019-05-30T13:26:05.914Z,39.97
2019-05-30T13:28:35.268Z,40.07
2019-05-30T13:31:04.594Z,40.35
2019-05-30T13:33:33.917Z,40.55
2019-05-30T13:36:03.174Z,40.72
2019-05-30T13:38:32.381Z,40.86
2019-05-30T13:41:01.805Z,41.04
2019-05-30T13:43:31.295Z,41.17
2019-05-30T13:46:00.540Z,41.29
2019-05-30T13:48:29.960Z,41.40
2019-05-30T13:50:59.241Z,41.81
2019-05-30T13:53:28.454Z,42.03
2019-05-30T13:55:57.864Z,42.34
2019-05-30T13:58:27.107Z,42.52
2019-05-30T14:00:56.310Z,42.71
2019-05-30T14:03:25.760Z,43.21
2019-05-30T14:05:55.061Z,43.85
2019-05-30T14:08:24.267Z,44.23
2019-05-30T14:10:53.593Z,44.64
2019-05-30T14:13:22.852Z,45.01
2019-05-30T14:15:52.049Z,45.14
2019-05-30T14:18:21.371Z,45.54
2019-05-30T14:20:50.686Z,45.79
2019-05-30T14:23:19.901Z,46.22
2019-05-30T14:25:49.239Z,46.56
2019-05-30T14:28:18.484Z,46.98
2019-05-30T14:30:47.688Z,47.14
2019-05-30T14:33:17.019Z,47.56
2019-05-30T14:35:46.350Z,48.04
2019-05-30T14:38:15.744Z,47.99
2019-05-30T14:40:45.156Z,47.85
2019-05-30T14:43:14.502Z,47.74
2019-05-30T14:45:43.954Z,47.75
2019-05-30T14:48:13.367Z,47.99
2019-05-30T14:50:42.733Z,48.24
2019-05-30T14:53:13.045Z,48.24
2019-05-30T14:55:42.801Z,48.33
2019-05-30T14:58:13.223Z,48.50
2019-05-30T15:00:43.314Z,48.58
2019-05-30T15:03:15.788Z,48.65
2019-05-30T15:05:43.662Z,48.68
2019-05-30T15:08:14.107Z,48.77
2019-05-30T15:10:43.312Z,48.71
2019-05-30T15:13:13.686Z,49.04
2019-05-30T15:15:43.144Z,49.10
2019-05-30T15:18:13.302Z,49.10
2019-05-30T15:20:42.768Z,49.19
2019-05-30T15:23:12.111Z,49.21
2019-05-30T15:25:41.420Z,49.28
2019-05-30T15:28:10.665Z,49.33
2019-05-30T15:30:39.995Z,49.43
2019-05-30T15:33:10.296Z,49.41
2019-05-30T15:35:39.818Z,49.36
2019-05-30T15:38:09.195Z,49.37
2019-05-30T15:40:38.529Z,49.46
2019-05-30T15:43:07.819Z,49.38
2019-05-30T15:45:37.405Z,49.46
2019-05-30T15:48:08.278Z,49.40
2019-05-30T15:50:37.613Z,49.32
2019-05-30T15:53:07.151Z,49.30
2019-05-30T15:55:36.368Z,49.34
2019-05-30T15:58:05.957Z,49.42
2019-05-30T16:00:37.073Z,49.58
2019-05-30T16:03:06.339Z,49.92
2019-05-30T16:05:35.597Z,49.99
2019-05-30T16:08:05.007Z,49.95
2019-05-30T16:10:36.777Z,49.97
2019-05-30T16:13:05.330Z,50.02
2019-05-30T16:15:34.840Z,50.04
2019-05-30T16:18:04.049Z,50.12
2019-05-30T16:20:33.276Z,50.17
2019-05-30T16:23:02.741Z,50.29
2019-05-30T16:25:31.942Z,50.27
2019-05-30T16:28:01.199Z,50.41
2019-05-30T16:30:30.631Z,50.58
2019-05-30T16:32:59.850Z,50.51
2019-05-30T16:35:29.079Z,50.56
2019-05-30T16:37:58.538Z,50.66
2019-05-30T16:40:28.563Z,50.79
2019-05-30T16:42:57.871Z,50.77
2019-05-30T16:45:27.355Z,50.80
2019-05-30T16:47:56.562Z,50.84
2019-05-30T16:50:27.020Z,51.00
2019-05-30T16:52:56.550Z,51.09
2019-05-30T16:55:25.808Z,51.42
2019-05-30T16:57:55.048Z,51.79
2019-05-30T17:00:24.765Z,52.15
2019-05-30T17:02:53.990Z,52.54
2019-05-30T17:05:23.249Z,53.52
2019-05-30T17:07:52.590Z,54.17
2019-05-30T17:10:29.499Z,54.57
2019-05-30T17:12:53.622Z,55.01
2019-05-30T17:15:24.008Z,55.52
2019-05-30T17:17:53.244Z,55.52
2019-05-30T17:20:22.895Z,55.64
2019-05-30T17:22:52.184Z,55.78
2019-05-30T17:25:21.396Z,55.67
2019-05-30T17:27:50.776Z,55.72
2019-05-30T17:30:19.994Z,56.03
2019-05-30T17:32:49.196Z,56.22
2019-05-30T17:35:20.028Z,56.22
2019-05-30T17:37:49.472Z,56.22
2019-05-30T17:40:18.691Z,56.20
2019-05-30T17:42:48.142Z,56.07
2019-05-30T17:45:18.928Z,55.69
2019-05-30T17:47:58.112Z,55.49
2019-05-30T17:50:21.723Z,55.29
2019-05-30T17:52:51.063Z,54.94
2019-05-30T17:55:20.264Z,54.62
2019-05-30T17:57:49.653Z,54.36
2019-05-30T18:00:20.288Z,53.97
2019-05-30T18:02:50.104Z,53.65
2019-05-30T18:05:20.437Z,53.35
2019-05-30T18:07:49.816Z,53.15
2019-05-30T18:10:21.717Z,52.99
2019-05-30T18:12:52.074Z,52.88
2019-05-30T18:15:24.971Z,52.93
2019-05-30T18:17:53.008Z,52.71
2019-05-30T18:20:23.158Z,52.62
2019-05-30T18:22:52.509Z,52.67
2019-05-30T18:25:21.903Z,52.61
2019-05-30T18:27:51.159Z,52.60
2019-05-30T18:30:21.652Z,52.54
2019-05-30T18:32:50.869Z,52.61
2019-05-30T18:35:20.219Z,52.75
2019-05-30T18:37:49.766Z,52.98
2019-05-30T18:40:30.943Z,53.08
2019-05-30T18:43:00.396Z,53.15
2019-05-30T18:45:38.019Z,53.24
2019-05-30T18:48:07.921Z,53.43
2019-05-30T18:50:37.124Z,53.59
2019-05-30T18:53:06.613Z,53.80
2019-05-30T18:55:37.002Z,53.96
2019-05-30T18:58:07.673Z,54.24
2019-05-30T19:00:37.748Z,54.52
2019-05-30T19:03:07.031Z,54.61
2019-05-30T19:05:36.978Z,54.81
2019-05-30T19:08:06.705Z,54.92
2019-05-30T19:10:36.568Z,55.12
2019-05-30T19:13:06.629Z,55.13
2019-05-30T19:15:36.066Z,55.35
2019-05-30T19:18:08.957Z,55.36
2019-05-30T19:20:36.431Z,55.44
2019-05-30T19:23:05.920Z,55.79
2019-05-30T19:25:35.652Z,56.05
2019-05-30T19:28:07.967Z,56.11
2019-05-30T19:30:40.849Z,56.38
2019-05-30T19:33:08.394Z,56.34
2019-05-30T19:35:38.347Z,56.59
2019-05-30T19:38:11.336Z,57.09
2019-05-30T19:40:43.065Z,57.09
2019-05-30T19:43:12.407Z,57.38
2019-05-30T19:45:42.076Z,57.59
2019-05-30T19:48:11.469Z,57.69
2019-05-30T19:50:40.718Z,57.69
2019-05-30T19:53:10.045Z,57.72
2019-05-30T19:55:39.550Z,57.72
2019-05-30T19:58:09.071Z,58.11
2019-05-30T20:00:55.571Z,58.23
2019-05-30T20:03:09.456Z,58.19
2019-05-30T20:05:38.935Z,58.19
2019-05-30T20:08:08.544Z,58.59
2019-05-30T20:10:39.112Z,58.59
2019-05-30T20:13:08.748Z,58.69
2019-05-30T20:15:39.448Z,58.79
2019-05-30T20:18:08.917Z,59.07
2019-05-30T20:20:51.707Z,59.04
2019-05-30T20:23:09.731Z,59.16
2019-05-30T20:25:43.691Z,59.30
2019-05-30T20:28:10.476Z,59.44
2019-05-30T20:30:39.686Z,59.44
2019-05-30T20:33:08.969Z,59.46
2019-05-30T20:35:40.017Z,59.56
2019-05-30T20:38:09.338Z,59.89
2019-05-30T20:40:38.923Z,59.98
2019-05-30T20:43:08.385Z,60.10
2019-05-30T20:45:41.946Z,60.27
2019-05-30T20:48:08.925Z,60.58
2019-05-30T20:50:39.072Z,60.67
2019-05-30T20:53:08.539Z,60.96
2019-05-30T20:55:38.353Z,61.21
2019-05-30T20:58:08.018Z,61.21
2019-05-30T21:00:40.136Z,61.10
2019-05-30T21:03:09.693Z,61.31
2019-05-30T21:05:40.361Z,61.49
2019-05-30T21:08:09.642Z,62.12
2019-05-30T21:10:41.247Z,62.10
2019-05-30T21:13:10.918Z,62.14
2019-05-30T21:15:41.899Z,63.30
2019-05-30T21:18:11.290Z,63.30
2019-05-30T21:20:40.672Z,63.20
2019-05-30T21:23:10.141Z,63.25
2019-05-30T21:25:40.956Z,63.93
2019-05-30T21:28:11.021Z,64.06
2019-05-30T21:30:41.261Z,64.50
2019-05-30T21:33:10.946Z,64.37
2019-05-30T21:35:43.845Z,64.67
2019-05-30T21:38:13.223Z,64.67
2019-05-30T21:40:42.545Z,65.36
2019-05-30T21:43:11.883Z,65.36
2019-05-30T21:45:41.094Z,65.36
2019-05-30T21:48:10.413Z,65.49
2019-05-30T21:50:43.061Z,66.19
2019-05-30T21:53:10.966Z,66.22
2019-05-30T21:55:40.223Z,66.56
2019-05-30T21:58:09.625Z,66.43
2019-05-30T22:01:23.693Z,66.63
2019-05-30T22:03:53.999Z,66.64
2019-05-30T22:06:23.206Z,66.88
2019-05-30T22:08:52.486Z,66.82
2019-05-30T22:11:22.234Z,67.16
2019-05-30T22:13:52.013Z,67.20
2019-05-30T22:16:21.696Z,67.20
2019-05-30T22:18:52.221Z,68.31
2019-05-30T22:21:21.543Z,68.81
2019-05-30T22:23:52.609Z,69.00
2019-05-30T22:26:22.254Z,69.13
2019-05-30T22:28:52.677Z,69.13
2019-05-30T22:31:22.119Z,70.05
2019-05-30T22:33:53.351Z,70.31
2019-05-30T22:36:23.085Z,70.86
2019-05-30T22:38:53.151Z,70.86
2019-05-30T22:41:23.501Z,70.67
2019-05-30T22:43:53.107Z,70.96
2019-05-30T22:46:22.504Z,73.20
2019-05-30T22:48:52.973Z,73.20
2019-05-30T22:51:22.533Z,74.59
2019-05-30T22:53:54.225Z,74.59
2019-05-30T22:56:23.894Z,76.01
2019-05-30T22:58:53.800Z,77.62
2019-05-30T23:01:24.790Z,78.85
2019-05-30T23:03:54.251Z,78.88
2019-05-30T23:06:23.883Z,78.73
2019-05-30T23:08:53.125Z,79.28
2019-05-30T23:11:23.590Z,79.72
2019-05-30T23:13:53.928Z,80.06
2019-05-30T23:16:24.233Z,81.47
2019-05-30T23:18:54.619Z,81.26
2019-05-30T23:21:24.369Z,81.12
2019-05-30T23:23:55.173Z,81.28
2019-05-30T23:26:24.885Z,81.37
2019-05-30T23:28:54.094Z,81.76
2019-05-30T23:31:24.090Z,81.68
2019-05-30T23:33:54.486Z,82.25
2019-05-30T23:36:23.849Z,82.74
2019-05-30T23:38:53.357Z,82.87
2019-05-30T23:41:22.578Z,82.99
2019-05-30T23:44:00.117Z,83.08
2019-05-30T23:46:23.002Z,83.32
2019-05-30T23:48:52.244Z,83.44
2019-05-30T23:51:21.483Z,83.39
2019-05-30T23:53:52.040Z,83.34
2019-05-30T23:56:21.567Z,82.77
2019-05-30T23:58:52.429Z,82.67
